Teenie Sonier — WDI2635 — position and weather

sailwx.info

Track history (hours):
 
Tides and Currents Weather Stations Pressure Air Temp Water Temp Dewpoint Dewpoint Depression Visibility Wind Speed Wind Dir Waves Ship Positions

Teenie Sonier

Owner: LeBeouf Bros. Towing, LLC, Houma, LA. More information available from US FCC via Universal Licensing System and Coast Guard Vessel Documentation Center.

Last reported at 2018-Feb-21 18:59 UTC. Time now 2018-Feb-22 23:04 UTC.
Position N 29°36' W 094°22'.

Length 26 m; draft 9.6 m.

Type: Tug. MMSI: 367680160.

Date/timePositionNaut miles runAvg speedWind from/ knotsBaromVisibWave heightAir tempDewpointWater temp
2018-Feb-21 18:59N 29°36' W 094°22'1 1.1
2018-Feb-21 17:49N 29°37' W 094°20'2 4.9
2018-Feb-21 17:30N 29°38' W 094°19'3 5.5
2018-Feb-21 17:00N 29°39' W 094°16'1 1.7
2018-Feb-21 16:30N 29°39' W 094°15'2 4.4
2018-Feb-21 16:00N 29°40' W 094°13'4 7.4
2018-Feb-21 15:30N 29°42' W 094°09'1 1.3
2018-Feb-21 15:00N 29°42' W 094°08'0 0.0
2018-Feb-21 14:30N 29°42' W 094°08'0 0.0
2018-Feb-21 14:00N 29°42' W 094°08'0 0.0
2018-Feb-21 13:30N 29°42' W 094°08'0 0.0
2018-Feb-21 13:00N 29°42' W 094°08'0 0.1
2018-Feb-21 12:30N 29°42' W 094°08'2 4.6
2018-Feb-21 12:00N 29°44' W 094°06'0 0.1
2018-Feb-21 11:29N 29°44' W 094°06'0 0.0
2018-Feb-21 11:00N 29°44' W 094°06'0 0.0
2018-Feb-21 10:30N 29°44' W 094°06'0 0.0
2018-Feb-21 10:00N 29°44' W 094°06'0 0.0
2018-Feb-21 09:30N 29°44' W 094°06'0 0.1
2018-Feb-21 09:00N 29°44' W 094°06'0 0.0
2018-Feb-21 08:30N 29°44' W 094°06'0 0.0
2018-Feb-21 07:58N 29°44' W 094°06'0 0.0
2018-Feb-21 07:30N 29°44' W 094°06'0 0.0
2018-Feb-21 07:00N 29°44' W 094°06'0 0.0
2018-Feb-21 06:30N 29°44' W 094°06'0 0.1
2018-Feb-21 06:00N 29°44' W 094°06'3 6.8
2018-Feb-21 05:30N 29°46' W 094°03'3 6.4
2018-Feb-21 05:00N 29°48' W 094°00'3 6.7
2018-Feb-21 04:30N 29°50' W 093°57'5 9.0
2018-Feb-21 04:00N 29°54' W 093°54'4 8.6
2018-Feb-21 03:30N 29°57' W 093°52'3 6.6
2018-Feb-21 03:00N 29°59' W 093°55'4 7.4
2018-Feb-21 02:30N 30°01' W 093°59'1 1.3
2018-Feb-21 02:00N 30°01' W 093°59'0 0.0
2018-Feb-21 01:30N 30°01' W 093°59'0 0.0
2018-Feb-21 01:00N 30°01' W 093°59'0 0.0
2018-Feb-21 00:30N 30°01' W 093°59'0 0.0
2018-Feb-21 00:00N 30°01' W 093°59'0 0.0
2018-Feb-20 23:30N 30°01' W 093°59'0 0.0
2018-Feb-20 23:00N 30°01' W 093°59'0 0.0
2018-Feb-20 22:30N 30°01' W 093°59'0 0.0
2018-Feb-20 22:00N 30°01' W 093°59'0 0.0
2018-Feb-20 21:30N 30°01' W 093°59'0 0.0
2018-Feb-20 21:00N 30°01' W 093°59'0 0.0
2018-Feb-20 20:30N 30°01' W 093°59'0 0.0
2018-Feb-20 20:00N 30°01' W 093°59'0 0.0
2018-Feb-20 19:30N 30°01' W 093°59'0 0.0
2018-Feb-20 19:00N 30°01' W 093°59'0 0.0
2018-Feb-20 18:30N 30°01' W 093°59'0 0.0
2018-Feb-20 18:00N 30°01' W 093°59'0 0.0
2018-Feb-20 17:30N 30°01' W 093°59'0 0.1
2018-Feb-20 17:00N 30°01' W 093°59'0 0.0
2018-Feb-20 16:30N 30°01' W 093°59'0 0.6
2018-Feb-20 16:00N 30°01' W 093°59'0 0.0
2018-Feb-20 15:30N 30°01' W 093°59'0 0.0
2018-Feb-20 15:00N 30°01' W 093°59'0 0.0
2018-Feb-20 14:30N 30°01' W 093°59'0 0.0
2018-Feb-20 14:00N 30°01' W 093°59'0 0.0
2018-Feb-20 13:30N 30°01' W 093°59'0 0.0
2018-Feb-20 13:00N 30°01' W 093°59'0 0.0
2018-Feb-20 12:30N 30°01' W 093°59'0 0.0
2018-Feb-20 12:00N 30°01' W 093°59'0 0.0
2018-Feb-20 11:30N 30°01' W 093°59'0 0.2
2018-Feb-20 11:00N 30°01' W 093°59'1 2.6
2018-Feb-20 10:30N 30°01' W 094°01'2 3.8
2018-Feb-20 10:00N 30°03' W 094°02'0 0.0
2018-Feb-20 09:30N 30°03' W 094°02'0 0.0
2018-Feb-20 09:00N 30°03' W 094°02'0 0.0
2018-Feb-20 08:30N 30°03' W 094°02'0 0.0
2018-Feb-20 08:00N 30°03' W 094°02'0 0.0
2018-Feb-20 07:30N 30°03' W 094°02'0 0.0
2018-Feb-20 07:00N 30°03' W 094°02'0 0.0
2018-Feb-20 06:30N 30°03' W 094°02'0 0.0
2018-Feb-20 06:00N 30°03' W 094°02'0 0.0
2018-Feb-20 05:30N 30°03' W 094°02'0 0.0
2018-Feb-20 05:00N 30°03' W 094°02'0 0.0
2018-Feb-20 04:30N 30°03' W 094°02'0 0.0
2018-Feb-20 04:00N 30°03' W 094°02'0 0.0
2018-Feb-20 03:30N 30°03' W 094°02'0 0.0
2018-Feb-20 03:00N 30°03' W 094°02'0 0.0
2018-Feb-20 02:30N 30°03' W 094°02'0 0.0
2018-Feb-20 02:00N 30°03' W 094°02'0 0.0
2018-Feb-20 01:30N 30°03' W 094°02'0 0.0
2018-Feb-20 01:00N 30°03' W 094°02'0 0.0
2018-Feb-20 00:30N 30°03' W 094°02'0 0.0
2018-Feb-20 00:00N 30°03' W 094°02'0 0.0
2018-Feb-19 23:30N 30°03' W 094°02'0 0.0
2018-Feb-19 23:00N 30°03' W 094°02'0 0.0
2018-Feb-19 22:30N 30°03' W 094°02'0 0.0
2018-Feb-19 22:00N 30°03' W 094°02'0 0.0
2018-Feb-19 21:30N 30°03' W 094°02'0 0.0
2018-Feb-19 21:00N 30°03' W 094°02'0 0.0
2018-Feb-19 20:30N 30°03' W 094°02'0 0.0
2018-Feb-19 20:00N 30°03' W 094°02'0 0.1
2018-Feb-19 19:30N 30°03' W 094°02'0 0.1
2018-Feb-19 19:00N 30°03' W 094°02'0 0.1
2018-Feb-19 18:30N 30°03' W 094°02'2 4.1
2018-Feb-19 18:00N 30°01' W 094°00'3 6.8
2018-Feb-19 17:30N 29°60' W 093°57'4 7.7
2018-Feb-19 17:00N 29°59' W 093°52'3 6.4
2018-Feb-19 16:30N 29°56' W 093°53'4 7.9
2018-Feb-19 16:00N 29°53' W 093°55'4 7.5
2018-Feb-19 15:30N 29°49' W 093°58'1 2.2
2018-Feb-19 15:00N 29°49' W 093°59'3 6.2
2018-Feb-19 14:30N 29°47' W 094°02'3 6.0
2018-Feb-19 14:00N 29°45' W 094°04'3 5.8
2018-Feb-19 13:30N 29°43' W 094°07'3 5.1
2018-Feb-19 13:00N 29°42' W 094°09'2 4.9
2018-Feb-19 12:30N 29°41' W 094°12'2 3.6
2018-Feb-19 12:00N 29°40' W 094°14'2 3.5
2018-Feb-19 11:30N 29°39' W 094°15'2 4.9
2018-Feb-19 11:00N 29°38' W 094°18'2 4.3
2018-Feb-19 10:30N 29°37' W 094°20'2 3.6
2018-Feb-19 10:00N 29°36' W 094°22'2 3.8
2018-Feb-19 09:30N 29°36' W 094°24'2 3.2
2018-Feb-19 09:00N 29°34' W 094°25'0 0.4
2018-Feb-19 08:30N 29°34' W 094°25'0 0.0
2018-Feb-19 08:00N 29°34' W 094°25'0 0.0
2018-Feb-19 07:30N 29°34' W 094°25'0 0.0
2018-Feb-19 06:58N 29°34' W 094°25'0 0.0
2018-Feb-19 06:28N 29°34' W 094°25'0 0.0
2018-Feb-19 06:00N 29°34' W 094°25'0 0.0
2018-Feb-19 05:30N 29°34' W 094°25'0 0.0
2018-Feb-19 05:00N 29°34' W 094°25'0 0.0
2018-Feb-19 04:30N 29°34' W 094°25'0 0.0
2018-Feb-19 04:00N 29°34' W 094°25'0 0.0
2018-Feb-19 02:35N 29°34' W 094°25'0 0.3
2018-Feb-19 02:30N 29°34' W 094°25'1 1.1
2018-Feb-19 02:00N 29°34' W 094°26'0 0.7
2018-Feb-19 01:30N 29°34' W 094°26'0 0.0
2018-Feb-19 00:53N 29°34' W 094°26'0 0.0
2018-Feb-19 00:05N 29°34' W 094°26'0 0.0
2018-Feb-18 23:44N 29°34' W 094°26'0 0.0
2018-Feb-18 23:30N 29°34' W 094°26'2 3.2
2018-Feb-18 23:00N 29°33' W 094°28'5 1.3
2018-Feb-18 19:21N 29°30' W 094°32'0 0.0
2018-Feb-18 18:11N 29°30' W 094°32'0 0.0
2018-Feb-18 17:39N 29°30' W 094°32'0 0.0
2018-Feb-18 17:20N 29°30' W 094°32'0 0.0
2018-Feb-18 15:46N 29°30' W 094°32'0 0.0
2018-Feb-18 15:23N 29°30' W 094°32'0 0.0
2018-Feb-18 14:59N 29°30' W 094°32'0 0.0
2018-Feb-18 14:25N 29°30' W 094°32'0 0.0
2018-Feb-18 08:29N 29°30' W 094°32'0 0.0
2018-Feb-18 07:57N 29°30' W 094°32'0 0.0
2018-Feb-18 07:29N 29°30' W 094°32'3 0.6
2018-Feb-18 02:29N 29°29' W 094°35'0 0.0
2018-Feb-18 01:49N 29°29' W 094°35'0 0.0
2018-Feb-18 01:22N 29°29' W 094°35'0 0.0
2018-Feb-18 00:45N 29°29' W 094°35'0 0.0
2018-Feb-18 00:29N 29°29' W 094°35'2 1.4
2018-Feb-17 22:47N 29°28' W 094°38'14 2.9
2018-Feb-17 18:01N 29°32' W 094°53'1 9.1
2018-Feb-17 17:56N 29°32' W 094°54'4 8.8
2018-Feb-17 17:28N 29°36' W 094°57'4 8.6
2018-Feb-17 17:00N 29°39' W 094°58'4 7.9
2018-Feb-17 16:30N 29°42' W 095°01'1 1.9
2018-Feb-17 15:46N 29°42' W 095°03'0 0.1
2018-Feb-17 15:27N 29°42' W 095°03'0 0.0
2018-Feb-17 14:58N 29°42' W 095°03'0 0.0
2018-Feb-17 14:30N 29°42' W 095°03'0 0.0
2018-Feb-17 13:59N 29°42' W 095°03'0 0.0
2018-Feb-17 13:29N 29°42' W 095°03'0 0.0
2018-Feb-17 13:00N 29°42' W 095°03'0 0.0
2018-Feb-17 12:25N 29°42' W 095°03'0 0.0
2018-Feb-17 11:58N 29°42' W 095°03'0 0.0
2018-Feb-17 11:30N 29°43' W 095°03'0 0.0
2018-Feb-17 11:00N 29°42' W 095°03'0 0.0
2018-Feb-17 10:24N 29°42' W 095°03'0 0.0
2018-Feb-17 09:58N 29°42' W 095°03'0 0.0
2018-Feb-17 09:26N 29°42' W 095°03'0 0.0
2018-Feb-17 09:00N 29°42' W 095°03'0 0.0
2018-Feb-17 08:30N 29°42' W 095°03'0 0.0
2018-Feb-17 08:00N 29°43' W 095°03'0 0.0
2018-Feb-17 07:30N 29°42' W 095°03'0 0.0
2018-Feb-17 07:00N 29°42' W 095°03'0 0.0
2018-Feb-17 06:30N 29°42' W 095°03'0 0.0
2018-Feb-17 06:00N 29°42' W 095°03'0 0.0
2018-Feb-17 05:29N 29°43' W 095°03'0 0.0
2018-Feb-17 04:55N 29°42' W 095°03'0 0.0
2018-Feb-17 04:29N 29°42' W 095°03'0 0.0
2018-Feb-17 03:59N 29°42' W 095°03'0 0.0
2018-Feb-17 03:30N 29°43' W 095°03'0 0.0
2018-Feb-17 02:59N 29°42' W 095°03'0 0.0
2018-Feb-17 02:29N 29°42' W 095°03'0 0.0
2018-Feb-17 01:55N 29°42' W 095°03'0 0.0
2018-Feb-17 01:26N 29°42' W 095°03'0 0.0
2018-Feb-17 00:58N 29°42' W 095°03'0 0.0
2018-Feb-17 00:30N 29°42' W 095°03'0 0.0
2018-Feb-16 23:56N 29°42' W 095°03'0 0.0
2018-Feb-16 23:27N 29°42' W 095°03'0 0.0
2018-Feb-16 23:00N 29°42' W 095°03'0 0.0
2018-Feb-16 22:19N 29°42' W 095°03'0 0.0
2018-Feb-16 19:48N 29°42' W 095°03'0 0.0
2018-Feb-16 19:28N 29°42' W 095°03'0 0.0
2018-Feb-16 18:59N 29°42' W 095°03'0 0.0
2018-Feb-16 18:30N 29°42' W 095°03'0 0.0
2018-Feb-16 18:00N 29°42' W 095°03'0 0.0
2018-Feb-16 17:30N 29°42' W 095°03'0 0.0
2018-Feb-16 17:00N 29°42' W 095°03'0 0.0
2018-Feb-16 16:30N 29°42' W 095°03'0 0.0
2018-Feb-16 16:00N 29°42' W 095°03'0 0.1
2018-Feb-16 15:30N 29°42' W 095°03'0 0.1
2018-Feb-16 15:00N 29°42' W 095°03'0 0.0
2018-Feb-16 14:30N 29°42' W 095°03'0 0.0
2018-Feb-16 14:00N 29°42' W 095°03'0 0.0
2018-Feb-16 13:30N 29°42' W 095°03'0 0.0
2018-Feb-16 09:46N 29°42' W 095°03'0 0.0
2018-Feb-16 09:15N 29°42' W 095°03'0 0.0
2018-Feb-16 08:36N 29°42' W 095°03'0 0.0
2018-Feb-16 08:22N 29°42' W 095°03'0 0.0
2018-Feb-16 07:53N 29°42' W 095°03'0 0.0
2018-Feb-16 07:26N 29°42' W 095°03'0 0.0
2018-Feb-16 06:57N 29°42' W 095°03'0 0.0
2018-Feb-16 06:12N 29°42' W 095°03'0 0.0
2018-Feb-16 05:58N 29°42' W 095°03'0 0.0
2018-Feb-16 05:19N 29°42' W 095°03'0 0.0
2018-Feb-16 04:59N 29°42' W 095°03'0 0.0
2018-Feb-16 04:28N 29°42' W 095°03'0 0.0
2018-Feb-16 03:59N 29°42' W 095°03'0 0.0
2018-Feb-16 03:24N 29°42' W 095°03'0 0.0
2018-Feb-16 03:00N 29°42' W 095°03'0 0.2
2018-Feb-16 02:30N 29°43' W 095°03'1 1.4
2018-Feb-16 01:35N 29°42' W 095°01'1 3.3
2018-Feb-16 01:23N 29°43' W 095°01'1 0.2
2018-Feb-15 19:33N 29°42' W 095°03'0 0.0
2018-Feb-14 21:07N 29°43' W 095°03'0 0.4
2018-Feb-14 20:35N 29°42' W 095°03'0 0.1
2018-Feb-14 18:34N 29°42' W 095°03'0 0.1
2018-Feb-14 18:22N 29°43' W 095°03'0 0.0
2018-Feb-14 17:57N 29°43' W 095°03'0 0.0
2018-Feb-14 17:26N 29°43' W 095°03'0 0.0
2018-Feb-14 16:56N 29°43' W 095°03'  
2018-Feb-12 00:07N 29°43' W 095°03'1 2.7
2018-Feb-11 23:41N 29°42' W 095°01'0 1.2
2018-Feb-11 23:28N 29°42' W 095°01'1 1.7
2018-Feb-11 22:56N 29°42' W 095°00'2 5.1
2018-Feb-11 22:30N 29°40' W 094°59'4 7.5
2018-Feb-11 22:00N 29°37' W 094°57'4 7.7
2018-Feb-11 21:30N 29°33' W 094°55'  
Track history (hours):
 
Tides and Currents Weather Stations Pressure Air Temp Water Temp Dewpoint Dewpoint Depression Visibility Wind Speed Wind Dir Waves Ship Positions

Teenie Sonier

Owner: LeBeouf Bros. Towing, LLC, Houma, LA. More information available from US FCC via Universal Licensing System and Coast Guard Vessel Documentation Center.

Last reported at 2018-Feb-21 18:59 UTC. Time now 2018-Feb-22 23:04 UTC.
Position N 29°36' W 094°22'.

Length 26 m; draft 9.6 m.

Type: Tug. MMSI: 367680160.

Date/timePositionNaut miles runAvg speedWind from/ knotsBaromVisibWave heightAir tempDewpointWater temp
2018-Feb-21 18:59N 29°36' W 094°22'1 1.1
2018-Feb-21 17:49N 29°37' W 094°20'2 4.9
2018-Feb-21 17:30N 29°38' W 094°19'3 5.5
2018-Feb-21 17:00N 29°39' W 094°16'1 1.7
2018-Feb-21 16:30N 29°39' W 094°15'2 4.4
2018-Feb-21 16:00N 29°40' W 094°13'4 7.4
2018-Feb-21 15:30N 29°42' W 094°09'1 1.3
2018-Feb-21 15:00N 29°42' W 094°08'0 0.0
2018-Feb-21 14:30N 29°42' W 094°08'0 0.0
2018-Feb-21 14:00N 29°42' W 094°08'0 0.0
2018-Feb-21 13:30N 29°42' W 094°08'0 0.0
2018-Feb-21 13:00N 29°42' W 094°08'0 0.1
2018-Feb-21 12:30N 29°42' W 094°08'2 4.6
2018-Feb-21 12:00N 29°44' W 094°06'0 0.1
2018-Feb-21 11:29N 29°44' W 094°06'0 0.0
2018-Feb-21 11:00N 29°44' W 094°06'0 0.0
2018-Feb-21 10:30N 29°44' W 094°06'0 0.0
2018-Feb-21 10:00N 29°44' W 094°06'0 0.0
2018-Feb-21 09:30N 29°44' W 094°06'0 0.1
2018-Feb-21 09:00N 29°44' W 094°06'0 0.0
2018-Feb-21 08:30N 29°44' W 094°06'0 0.0
2018-Feb-21 07:58N 29°44' W 094°06'0 0.0
2018-Feb-21 07:30N 29°44' W 094°06'0 0.0
2018-Feb-21 07:00N 29°44' W 094°06'0 0.0
2018-Feb-21 06:30N 29°44' W 094°06'0 0.1
2018-Feb-21 06:00N 29°44' W 094°06'3 6.8
2018-Feb-21 05:30N 29°46' W 094°03'3 6.4
2018-Feb-21 05:00N 29°48' W 094°00'3 6.7
2018-Feb-21 04:30N 29°50' W 093°57'5 9.0
2018-Feb-21 04:00N 29°54' W 093°54'4 8.6
2018-Feb-21 03:30N 29°57' W 093°52'3 6.6
2018-Feb-21 03:00N 29°59' W 093°55'4 7.4
2018-Feb-21 02:30N 30°01' W 093°59'1 1.3
2018-Feb-21 02:00N 30°01' W 093°59'0 0.0
2018-Feb-21 01:30N 30°01' W 093°59'0 0.0
2018-Feb-21 01:00N 30°01' W 093°59'0 0.0
2018-Feb-21 00:30N 30°01' W 093°59'0 0.0
2018-Feb-21 00:00N 30°01' W 093°59'0 0.0
2018-Feb-20 23:30N 30°01' W 093°59'0 0.0
2018-Feb-20 23:00N 30°01' W 093°59'0 0.0
2018-Feb-20 22:30N 30°01' W 093°59'0 0.0
2018-Feb-20 22:00N 30°01' W 093°59'0 0.0
2018-Feb-20 21:30N 30°01' W 093°59'0 0.0
2018-Feb-20 21:00N 30°01' W 093°59'0 0.0
2018-Feb-20 20:30N 30°01' W 093°59'0 0.0
2018-Feb-20 20:00N 30°01' W 093°59'0 0.0
2018-Feb-20 19:30N 30°01' W 093°59'0 0.0
2018-Feb-20 19:00N 30°01' W 093°59'0 0.0
2018-Feb-20 18:30N 30°01' W 093°59'0 0.0
2018-Feb-20 18:00N 30°01' W 093°59'0 0.0
2018-Feb-20 17:30N 30°01' W 093°59'0 0.1
2018-Feb-20 17:00N 30°01' W 093°59'0 0.0
2018-Feb-20 16:30N 30°01' W 093°59'0 0.6
2018-Feb-20 16:00N 30°01' W 093°59'0 0.0
2018-Feb-20 15:30N 30°01' W 093°59'0 0.0
2018-Feb-20 15:00N 30°01' W 093°59'0 0.0
2018-Feb-20 14:30N 30°01' W 093°59'0 0.0
2018-Feb-20 14:00N 30°01' W 093°59'0 0.0
2018-Feb-20 13:30N 30°01' W 093°59'0 0.0
2018-Feb-20 13:00N 30°01' W 093°59'0 0.0
2018-Feb-20 12:30N 30°01' W 093°59'0 0.0
2018-Feb-20 12:00N 30°01' W 093°59'0 0.0
2018-Feb-20 11:30N 30°01' W 093°59'0 0.2
2018-Feb-20 11:00N 30°01' W 093°59'1 2.6
2018-Feb-20 10:30N 30°01' W 094°01'2 3.8
2018-Feb-20 10:00N 30°03' W 094°02'0 0.0
2018-Feb-20 09:30N 30°03' W 094°02'0 0.0
2018-Feb-20 09:00N 30°03' W 094°02'0 0.0
2018-Feb-20 08:30N 30°03' W 094°02'0 0.0
2018-Feb-20 08:00N 30°03' W 094°02'0 0.0
2018-Feb-20 07:30N 30°03' W 094°02'0 0.0
2018-Feb-20 07:00N 30°03' W 094°02'0 0.0
2018-Feb-20 06:30N 30°03' W 094°02'0 0.0
2018-Feb-20 06:00N 30°03' W 094°02'0 0.0
2018-Feb-20 05:30N 30°03' W 094°02'0 0.0
2018-Feb-20 05:00N 30°03' W 094°02'0 0.0
2018-Feb-20 04:30N 30°03' W 094°02'0 0.0
2018-Feb-20 04:00N 30°03' W 094°02'0 0.0
2018-Feb-20 03:30N 30°03' W 094°02'0 0.0
2018-Feb-20 03:00N 30°03' W 094°02'0 0.0
2018-Feb-20 02:30N 30°03' W 094°02'0 0.0
2018-Feb-20 02:00N 30°03' W 094°02'0 0.0
2018-Feb-20 01:30N 30°03' W 094°02'0 0.0
2018-Feb-20 01:00N 30°03' W 094°02'0 0.0
2018-Feb-20 00:30N 30°03' W 094°02'0 0.0
2018-Feb-20 00:00N 30°03' W 094°02'0 0.0
2018-Feb-19 23:30N 30°03' W 094°02'0 0.0
2018-Feb-19 23:00N 30°03' W 094°02'0 0.0
2018-Feb-19 22:30N 30°03' W 094°02'0 0.0
2018-Feb-19 22:00N 30°03' W 094°02'0 0.0
2018-Feb-19 21:30N 30°03' W 094°02'0 0.0
2018-Feb-19 21:00N 30°03' W 094°02'0 0.0
2018-Feb-19 20:30N 30°03' W 094°02'0 0.0
2018-Feb-19 20:00N 30°03' W 094°02'0 0.1
2018-Feb-19 19:30N 30°03' W 094°02'0 0.1
2018-Feb-19 19:00N 30°03' W 094°02'0 0.1
2018-Feb-19 18:30N 30°03' W 094°02'2 4.1
2018-Feb-19 18:00N 30°01' W 094°00'3 6.8
2018-Feb-19 17:30N 29°60' W 093°57'4 7.7
2018-Feb-19 17:00N 29°59' W 093°52'3 6.4
2018-Feb-19 16:30N 29°56' W 093°53'4 7.9
2018-Feb-19 16:00N 29°53' W 093°55'4 7.5
2018-Feb-19 15:30N 29°49' W 093°58'1 2.2
2018-Feb-19 15:00N 29°49' W 093°59'3 6.2
2018-Feb-19 14:30N 29°47' W 094°02'3 6.0
2018-Feb-19 14:00N 29°45' W 094°04'3 5.8
2018-Feb-19 13:30N 29°43' W 094°07'3 5.1
2018-Feb-19 13:00N 29°42' W 094°09'2 4.9
2018-Feb-19 12:30N 29°41' W 094°12'2 3.6
2018-Feb-19 12:00N 29°40' W 094°14'2 3.5
2018-Feb-19 11:30N 29°39' W 094°15'2 4.9
2018-Feb-19 11:00N 29°38' W 094°18'2 4.3
2018-Feb-19 10:30N 29°37' W 094°20'2 3.6
2018-Feb-19 10:00N 29°36' W 094°22'2 3.8
2018-Feb-19 09:30N 29°36' W 094°24'2 3.2
2018-Feb-19 09:00N 29°34' W 094°25'0 0.4
2018-Feb-19 08:30N 29°34' W 094°25'0 0.0
2018-Feb-19 08:00N 29°34' W 094°25'0 0.0
2018-Feb-19 07:30N 29°34' W 094°25'0 0.0
2018-Feb-19 06:58N 29°34' W 094°25'0 0.0
2018-Feb-19 06:28N 29°34' W 094°25'0 0.0
2018-Feb-19 06:00N 29°34' W 094°25'0 0.0
2018-Feb-19 05:30N 29°34' W 094°25'0 0.0
2018-Feb-19 05:00N 29°34' W 094°25'0 0.0
2018-Feb-19 04:30N 29°34' W 094°25'0 0.0
2018-Feb-19 04:00N 29°34' W 094°25'0 0.0
2018-Feb-19 02:35N 29°34' W 094°25'0 0.3
2018-Feb-19 02:30N 29°34' W 094°25'1 1.1
2018-Feb-19 02:00N 29°34' W 094°26'0 0.7
2018-Feb-19 01:30N 29°34' W 094°26'0 0.0
2018-Feb-19 00:53N 29°34' W 094°26'0 0.0
2018-Feb-19 00:05N 29°34' W 094°26'0 0.0
2018-Feb-18 23:44N 29°34' W 094°26'0 0.0
2018-Feb-18 23:30N 29°34' W 094°26'2 3.2
2018-Feb-18 23:00N 29°33' W 094°28'5 1.3
2018-Feb-18 19:21N 29°30' W 094°32'0 0.0
2018-Feb-18 18:11N 29°30' W 094°32'0 0.0
2018-Feb-18 17:39N 29°30' W 094°32'0 0.0
2018-Feb-18 17:20N 29°30' W 094°32'0 0.0
2018-Feb-18 15:46N 29°30' W 094°32'0 0.0
2018-Feb-18 15:23N 29°30' W 094°32'0 0.0
2018-Feb-18 14:59N 29°30' W 094°32'0 0.0
2018-Feb-18 14:25N 29°30' W 094°32'0 0.0
2018-Feb-18 08:29N 29°30' W 094°32'0 0.0
2018-Feb-18 07:57N 29°30' W 094°32'0 0.0
2018-Feb-18 07:29N 29°30' W 094°32'3 0.6
2018-Feb-18 02:29N 29°29' W 094°35'0 0.0
2018-Feb-18 01:49N 29°29' W 094°35'0 0.0
2018-Feb-18 01:22N 29°29' W 094°35'0 0.0
2018-Feb-18 00:45N 29°29' W 094°35'0 0.0
2018-Feb-18 00:29N 29°29' W 094°35'2 1.4
2018-Feb-17 22:47N 29°28' W 094°38'14 2.9
2018-Feb-17 18:01N 29°32' W 094°53'1 9.1
2018-Feb-17 17:56N 29°32' W 094°54'4 8.8
2018-Feb-17 17:28N 29°36' W 094°57'4 8.6
2018-Feb-17 17:00N 29°39' W 094°58'4 7.9
2018-Feb-17 16:30N 29°42' W 095°01'1 1.9
2018-Feb-17 15:46N 29°42' W 095°03'0 0.1
2018-Feb-17 15:27N 29°42' W 095°03'0 0.0
2018-Feb-17 14:58N 29°42' W 095°03'0 0.0
2018-Feb-17 14:30N 29°42' W 095°03'0 0.0
2018-Feb-17 13:59N 29°42' W 095°03'0 0.0
2018-Feb-17 13:29N 29°42' W 095°03'0 0.0
2018-Feb-17 13:00N 29°42' W 095°03'0 0.0
2018-Feb-17 12:25N 29°42' W 095°03'0 0.0
2018-Feb-17 11:58N 29°42' W 095°03'0 0.0
2018-Feb-17 11:30N 29°43' W 095°03'0 0.0
2018-Feb-17 11:00N 29°42' W 095°03'0 0.0
2018-Feb-17 10:24N 29°42' W 095°03'0 0.0
2018-Feb-17 09:58N 29°42' W 095°03'0 0.0
2018-Feb-17 09:26N 29°42' W 095°03'0 0.0
2018-Feb-17 09:00N 29°42' W 095°03'0 0.0
2018-Feb-17 08:30N 29°42' W 095°03'0 0.0
2018-Feb-17 08:00N 29°43' W 095°03'0 0.0
2018-Feb-17 07:30N 29°42' W 095°03'0 0.0
2018-Feb-17 07:00N 29°42' W 095°03'0 0.0
2018-Feb-17 06:30N 29°42' W 095°03'0 0.0
2018-Feb-17 06:00N 29°42' W 095°03'0 0.0
2018-Feb-17 05:29N 29°43' W 095°03'0 0.0
2018-Feb-17 04:55N 29°42' W 095°03'0 0.0
2018-Feb-17 04:29N 29°42' W 095°03'0 0.0
2018-Feb-17 03:59N 29°42' W 095°03'0 0.0
2018-Feb-17 03:30N 29°43' W 095°03'0 0.0
2018-Feb-17 02:59N 29°42' W 095°03'0 0.0
2018-Feb-17 02:29N 29°42' W 095°03'0 0.0
2018-Feb-17 01:55N 29°42' W 095°03'0 0.0
2018-Feb-17 01:26N 29°42' W 095°03'0 0.0
2018-Feb-17 00:58N 29°42' W 095°03'0 0.0
2018-Feb-17 00:30N 29°42' W 095°03'0 0.0
2018-Feb-16 23:56N 29°42' W 095°03'0 0.0
2018-Feb-16 23:27N 29°42' W 095°03'0 0.0
2018-Feb-16 23:00N 29°42' W 095°03'0 0.0
2018-Feb-16 22:19N 29°42' W 095°03'0 0.0
2018-Feb-16 19:48N 29°42' W 095°03'0 0.0
2018-Feb-16 19:28N 29°42' W 095°03'0 0.0
2018-Feb-16 18:59N 29°42' W 095°03'0 0.0
2018-Feb-16 18:30N 29°42' W 095°03'0 0.0
2018-Feb-16 18:00N 29°42' W 095°03'0 0.0
2018-Feb-16 17:30N 29°42' W 095°03'0 0.0
2018-Feb-16 17:00N 29°42' W 095°03'0 0.0
2018-Feb-16 16:30N 29°42' W 095°03'0 0.0
2018-Feb-16 16:00N 29°42' W 095°03'0 0.1
2018-Feb-16 15:30N 29°42' W 095°03'0 0.1
2018-Feb-16 15:00N 29°42' W 095°03'0 0.0
2018-Feb-16 14:30N 29°42' W 095°03'0 0.0
2018-Feb-16 14:00N 29°42' W 095°03'0 0.0
2018-Feb-16 13:30N 29°42' W 095°03'0 0.0
2018-Feb-16 09:46N 29°42' W 095°03'0 0.0
2018-Feb-16 09:15N 29°42' W 095°03'0 0.0
2018-Feb-16 08:36N 29°42' W 095°03'0 0.0
2018-Feb-16 08:22N 29°42' W 095°03'0 0.0
2018-Feb-16 07:53N 29°42' W 095°03'0 0.0
2018-Feb-16 07:26N 29°42' W 095°03'0 0.0
2018-Feb-16 06:57N 29°42' W 095°03'0 0.0
2018-Feb-16 06:12N 29°42' W 095°03'0 0.0
2018-Feb-16 05:58N 29°42' W 095°03'0 0.0
2018-Feb-16 05:19N 29°42' W 095°03'0 0.0
2018-Feb-16 04:59N 29°42' W 095°03'0 0.0
2018-Feb-16 04:28N 29°42' W 095°03'0 0.0
2018-Feb-16 03:59N 29°42' W 095°03'0 0.0
2018-Feb-16 03:24N 29°42' W 095°03'0 0.0
2018-Feb-16 03:00N 29°42' W 095°03'0 0.2
2018-Feb-16 02:30N 29°43' W 095°03'1 1.4
2018-Feb-16 01:35N 29°42' W 095°01'1 3.3
2018-Feb-16 01:23N 29°43' W 095°01'1 0.2
2018-Feb-15 19:33N 29°42' W 095°03'0 0.0
2018-Feb-14 21:07N 29°43' W 095°03'0 0.4
2018-Feb-14 20:35N 29°42' W 095°03'0 0.1
2018-Feb-14 18:34N 29°42' W 095°03'0 0.1
2018-Feb-14 18:22N 29°43' W 095°03'0 0.0
2018-Feb-14 17:57N 29°43' W 095°03'0 0.0
2018-Feb-14 17:26N 29°43' W 095°03'0 0.0
2018-Feb-14 16:56N 29°43' W 095°03'  
2018-Feb-12 00:07N 29°43' W 095°03'1 2.7
2018-Feb-11 23:41N 29°42' W 095°01'0 1.2
2018-Feb-11 23:28N 29°42' W 095°01'1 1.7
2018-Feb-11 22:56N 29°42' W 095°00'2 5.1
2018-Feb-11 22:30N 29°40' W 094°59'4 7.5
2018-Feb-11 22:00N 29°37' W 094°57'4 7.7
2018-Feb-11 21:30N 29°33' W 094°55'  

Dump ship's entire track history